createdAt,value
2022-08-24T00:02:14.376Z,76.30
2022-08-24T00:04:44.380Z,79.51
2022-08-24T00:07:19.153Z,77.87
2022-08-24T00:09:57.758Z,78.59
2022-08-24T00:12:25.992Z,76.75
2022-08-24T00:14:55.133Z,78.47
2022-08-24T00:17:23.182Z,79.57
2022-08-24T00:19:51.615Z,80.09
2022-08-24T00:22:19.822Z,78.91
2022-08-24T00:24:47.998Z,80.42
2022-08-24T00:27:17.943Z,79.04
2022-08-24T00:29:46.256Z,79.13
2022-08-24T00:32:14.429Z,79.11
2022-08-24T00:34:42.620Z,78.92
2022-08-24T00:37:22.227Z,79.65
2022-08-24T00:39:50.429Z,79.81
2022-08-24T00:42:20.159Z,80.17
2022-08-24T00:44:48.300Z,80.40
2022-08-24T00:47:21.417Z,79.35
2022-08-24T00:49:57.672Z,80.10
2022-08-24T00:52:29.686Z,79.47
2022-08-24T00:55:02.039Z,79.90
2022-08-24T00:57:36.573Z,79.63
2022-08-24T01:00:12.339Z,78.73
2022-08-24T01:02:44.259Z,77.41
2022-08-24T01:05:13.684Z,77.20
2022-08-24T01:07:42.522Z,77.72
2022-08-24T01:10:13.857Z,77.94
2022-08-24T01:13:00.553Z,78.58
2022-08-24T01:15:29.947Z,77.57
2022-08-24T01:18:16.450Z,77.20
2022-08-24T01:20:47.729Z,78.50
2022-08-24T01:23:30.182Z,78.64
2022-08-24T01:26:05.683Z,77.67
2022-08-24T01:28:37.032Z,78.25
2022-08-24T01:31:05.670Z,80.99
2022-08-24T01:33:34.837Z,82.11
2022-08-24T01:36:09.947Z,79.67
2022-08-24T01:38:39.895Z,78.02
2022-08-24T01:41:09.027Z,78.30
2022-08-24T01:43:40.798Z,79.13
2022-08-24T01:46:09.359Z,79.67
2022-08-24T01:48:37.812Z,80.18
2022-08-24T01:51:06.192Z,80.95
2022-08-24T01:53:34.547Z,82.07
2022-08-24T01:56:04.576Z,80.60
2022-08-24T01:58:33.020Z,79.13
2022-08-24T02:01:01.238Z,78.53
2022-08-24T02:03:30.628Z,80.30
2022-08-24T02:05:59.101Z,80.99
2022-08-24T02:08:27.724Z,82.38
2022-08-24T02:10:56.800Z,81.68
2022-08-24T02:13:28.879Z,82.05
2022-08-24T02:15:58.380Z,82.73
2022-08-24T02:18:26.462Z,83.10
2022-08-24T02:20:54.573Z,82.94
2022-08-24T02:23:22.788Z,82.33
2022-08-24T02:25:51.074Z,80.79
2022-08-24T02:28:20.356Z,81.35
2022-08-24T02:30:50.415Z,81.58
2022-08-24T02:33:18.656Z,81.53
2022-08-24T02:35:46.820Z,82.29
2022-08-24T02:38:14.914Z,81.61
2022-08-24T02:40:43.558Z,83.50
2022-08-24T02:43:11.980Z,84.85
2022-08-24T02:45:44.525Z,86.50
2022-08-24T02:48:16.870Z,86.19
2022-08-24T02:50:47.720Z,84.33
2022-08-24T02:53:17.881Z,84.84
2022-08-24T02:55:46.973Z,82.42
2022-08-24T02:58:17.068Z,84.93
2022-08-24T03:00:47.088Z,84.71
2022-08-24T03:03:16.482Z,83.97
2022-08-24T03:05:44.575Z,85.76
2022-08-24T03:08:12.889Z,87.25
2022-08-24T03:10:41.075Z,86.30
2022-08-24T03:13:10.123Z,86.85
2022-08-24T03:15:38.306Z,85.95
2022-08-24T03:18:06.508Z,87.88
2022-08-24T03:20:36.015Z,86.89
2022-08-24T03:23:04.509Z,85.97
2022-08-24T03:25:33.182Z,84.74
2022-08-24T03:28:01.386Z,86.99
2022-08-24T03:30:30.115Z,87.26
2022-08-24T03:32:58.748Z,87.55
2022-08-24T03:35:27.114Z,88.34
2022-08-24T03:37:56.704Z,89.18
2022-08-24T03:40:25.124Z,89.85
2022-08-24T03:42:54.157Z,88.64
2022-08-24T03:45:23.631Z,88.00
2022-08-24T03:47:52.018Z,87.72
2022-08-24T03:50:21.320Z,87.59
2022-08-24T03:52:49.961Z,86.29
2022-08-24T03:55:20.201Z,85.81
2022-08-24T03:57:48.542Z,85.50
2022-08-24T04:00:17.630Z,87.83
2022-08-24T04:02:45.854Z,89.33
2022-08-24T04:05:14.579Z,87.89
2022-08-24T04:07:43.032Z,88.01
2022-08-24T04:10:14.059Z,89.81
2022-08-24T04:12:43.493Z,90.74
2022-08-24T04:15:13.166Z,87.93
2022-08-24T04:17:41.193Z,89.28
2022-08-24T04:20:10.477Z,90.64
2022-08-24T04:22:38.692Z,91.47
2022-08-24T04:25:09.452Z,92.21
2022-08-24T04:27:38.255Z,91.76
2022-08-24T04:30:09.058Z,91.94
2022-08-24T04:32:37.070Z,91.62
2022-08-24T04:35:06.198Z,92.06
2022-08-24T04:37:34.122Z,90.14
2022-08-24T04:40:03.137Z,92.51
2022-08-24T04:42:32.319Z,92.69
2022-08-24T04:45:01.647Z,92.51
2022-08-24T04:47:31.076Z,92.48
2022-08-24T04:49:59.073Z,97.11
2022-08-24T04:52:27.590Z,94.54
2022-08-24T04:54:55.773Z,92.72
2022-08-24T04:57:24.045Z,92.20
2022-08-24T04:59:52.051Z,92.77
2022-08-24T05:02:21.091Z,93.05
2022-08-24T05:04:50.755Z,94.95
2022-08-24T05:07:19.871Z,94.01
2022-08-24T05:09:48.042Z,95.37
2022-08-24T05:12:21.343Z,95.32
2022-08-24T05:14:49.882Z,93.98
2022-08-24T05:17:17.883Z,93.68
2022-08-24T05:19:46.079Z,91.97
2022-08-24T05:22:15.558Z,93.14
2022-08-24T05:24:43.570Z,93.77
2022-08-24T05:27:11.545Z,93.12
2022-08-24T05:29:42.312Z,95.10
2022-08-24T05:32:10.333Z,93.16
2022-08-24T05:34:38.406Z,92.87
2022-08-24T05:37:06.406Z,90.46
2022-08-24T05:39:35.828Z,91.95
2022-08-24T05:42:03.942Z,90.47
2022-08-24T05:44:32.106Z,90.12
2022-08-24T05:47:01.417Z,87.70
2022-08-24T05:49:30.068Z,86.76
2022-08-24T05:51:58.058Z,88.63
2022-08-24T05:54:27.154Z,89.25
2022-08-24T05:56:57.540Z,86.74
2022-08-24T05:59:25.689Z,87.01
2022-08-24T06:01:53.773Z,85.77
2022-08-24T06:04:22.596Z,86.97
2022-08-24T06:06:52.965Z,89.19
2022-08-24T06:09:21.696Z,84.83
2022-08-24T06:11:49.726Z,82.86
2022-08-24T06:14:23.898Z,82.83
2022-08-24T06:16:54.574Z,82.53
2022-08-24T06:19:23.090Z,79.71
2022-08-24T06:21:53.718Z,78.45
2022-08-24T06:24:44.562Z,80.40
2022-08-24T06:27:25.590Z,77.43
2022-08-24T06:29:58.458Z,74.98
2022-08-24T06:32:26.909Z,77.67
2022-08-24T06:34:58.369Z,78.17
2022-08-24T06:37:28.075Z,76.72
2022-08-24T06:39:58.663Z,76.33
2022-08-24T06:42:26.812Z,74.63
2022-08-24T06:44:56.474Z,73.78
2022-08-24T06:47:24.590Z,74.00
2022-08-24T06:49:52.894Z,72.44
2022-08-24T06:52:20.887Z,70.33
2022-08-24T06:54:49.074Z,69.40
2022-08-24T06:57:17.165Z,68.54
2022-08-24T06:59:45.977Z,68.57
2022-08-24T07:02:16.410Z,68.79
2022-08-24T07:04:44.446Z,68.86
2022-08-24T07:07:12.586Z,68.25
2022-08-24T07:09:40.749Z,68.18
2022-08-24T07:12:09.254Z,64.40
2022-08-24T07:14:37.350Z,67.74
2022-08-24T07:17:05.462Z,67.81
2022-08-24T07:19:34.907Z,68.25
2022-08-24T07:22:02.918Z,68.15
2022-08-24T07:24:31.154Z,67.72
2022-08-24T07:26:59.148Z,68.03
2022-08-24T07:32:15.199Z,66.47
2022-08-24T07:34:44.779Z,66.65
2022-08-24T07:37:12.760Z,65.02
2022-08-24T07:39:40.740Z,65.40
2022-08-24T07:42:13.737Z,64.10
2022-08-24T07:44:42.886Z,62.29
2022-08-24T07:47:36.595Z,64.96
2022-08-24T07:50:00.818Z,64.09
2022-08-24T07:52:29.139Z,64.20
2022-08-24T07:54:57.436Z,63.32
2022-08-24T07:57:25.812Z,62.12
2022-08-24T07:59:56.083Z,61.68
2022-08-24T08:02:24.193Z,61.62
2022-08-24T08:04:57.722Z,62.03
2022-08-24T08:07:28.473Z,61.22
2022-08-24T08:10:23.202Z,58.86
2022-08-24T08:12:51.220Z,59.54
2022-08-24T08:15:19.696Z,58.99
2022-08-24T08:17:48.021Z,59.06
2022-08-24T08:20:23.800Z,58.15
2022-08-24T08:23:10.899Z,56.52
2022-08-24T08:25:39.017Z,56.54
2022-08-24T08:28:18.684Z,56.38
2022-08-24T08:30:54.914Z,55.74
2022-08-24T08:33:23.765Z,55.84
2022-08-24T08:35:54.630Z,56.13
2022-08-24T08:38:25.548Z,55.81
2022-08-24T08:41:25.992Z,55.02
2022-08-24T08:44:01.387Z,53.98
2022-08-24T08:46:44.039Z,53.94
2022-08-24T08:49:26.208Z,53.61
2022-08-24T08:52:27.254Z,53.35
2022-08-24T08:55:05.894Z,53.73
2022-08-24T08:57:47.620Z,52.98
2022-08-24T09:00:19.160Z,52.48
2022-08-24T09:03:22.404Z,51.65
2022-08-24T09:06:07.300Z,51.48
2022-08-24T09:08:57.597Z,50.60
2022-08-24T09:11:38.139Z,49.91
2022-08-24T09:14:26.082Z,50.18
2022-08-24T09:17:13.125Z,49.35
2022-08-24T09:19:57.999Z,48.99
2022-08-24T09:22:26.281Z,48.75
2022-08-24T09:25:26.710Z,48.32
2022-08-24T09:28:14.669Z,47.55
2022-08-24T09:31:06.155Z,48.51
2022-08-24T09:33:43.678Z,47.79
2022-08-24T09:36:15.749Z,47.47
2022-08-24T09:39:08.113Z,46.67
2022-08-24T09:42:20.554Z,46.98
2022-08-24T09:45:16.304Z,46.98
2022-08-24T09:48:28.654Z,46.28
2022-08-24T09:51:35.859Z,46.06
2022-08-24T09:54:36.604Z,46.33
2022-08-24T09:58:02.032Z,46.04
2022-08-24T10:00:32.150Z,44.59
2022-08-24T10:03:07.186Z,46.13
2022-08-24T10:05:58.294Z,44.12
2022-08-24T10:08:41.502Z,44.08
2022-08-24T10:11:18.836Z,44.09
2022-08-24T10:13:55.711Z,44.50
2022-08-24T10:16:51.106Z,43.73
2022-08-24T10:19:46.538Z,42.74
2022-08-24T10:22:25.440Z,42.63
2022-08-24T10:25:15.408Z,43.69
2022-08-24T10:27:51.512Z,42.45
2022-08-24T10:30:41.905Z,41.83
2022-08-24T10:33:21.519Z,41.61
2022-08-24T10:36:31.574Z,39.93
2022-08-24T10:39:31.229Z,39.51
2022-08-24T10:42:52.620Z,38.97
2022-08-24T10:46:06.675Z,37.19
2022-08-24T10:49:02.367Z,37.42
2022-08-24T10:51:45.318Z,37.92
2022-08-24T10:58:11.059Z,34.31
2022-08-24T11:00:39.853Z,34.21
2022-08-24T11:03:12.669Z,35.45
2022-08-24T11:05:49.389Z,33.80
2022-08-24T11:08:23.552Z,32.73
2022-08-24T11:11:13.330Z,33.26
2022-08-24T11:13:53.629Z,31.91
2022-08-24T11:16:27.743Z,33.42
2022-08-24T11:18:58.702Z,35.43
2022-08-24T11:21:41.851Z,34.88
2022-08-24T11:24:14.470Z,31.96
2022-08-24T11:26:55.535Z,30.96
2022-08-24T11:29:27.644Z,30.27
2022-08-24T11:31:56.021Z,29.01
2022-08-24T11:34:34.809Z,29.88
2022-08-24T11:37:06.309Z,27.95
2022-08-24T11:39:39.587Z,28.54
2022-08-24T11:42:19.977Z,27.20
2022-08-24T11:45:05.339Z,28.81
2022-08-24T11:47:53.520Z,26.82
2022-08-24T11:50:30.438Z,26.90
2022-08-24T11:53:13.090Z,29.54
2022-08-24T11:55:51.876Z,27.85
2022-08-24T11:58:39.718Z,25.69
2022-08-24T12:04:17.403Z,26.02
2022-08-24T12:07:14.721Z,27.93
2022-08-24T12:10:11.099Z,29.36
2022-08-24T12:12:46.770Z,26.27
2022-08-24T12:15:23.837Z,28.45
2022-08-24T12:18:05.723Z,28.39
2022-08-24T12:20:40.301Z,28.36
2022-08-24T12:23:21.084Z,28.43
2022-08-24T12:26:25.066Z,27.02
2022-08-24T12:28:55.775Z,27.86
2022-08-24T12:31:32.727Z,29.95
2022-08-24T12:34:09.481Z,26.63
2022-08-24T12:36:42.729Z,27.72
2022-08-24T12:39:13.811Z,26.69
2022-08-24T12:41:56.124Z,28.74
2022-08-24T12:44:42.354Z,26.54
2022-08-24T12:47:13.437Z,25.88
2022-08-24T12:49:52.908Z,27.84
2022-08-24T12:52:57.860Z,25.35
2022-08-24T12:56:07.932Z,26.45
2022-08-24T12:59:00.991Z,26.93
2022-08-24T13:01:35.903Z,26.02
2022-08-24T13:04:12.542Z,30.71
2022-08-24T13:06:48.715Z,25.99
2022-08-24T13:13:10.724Z,27.38
2022-08-24T13:16:02.008Z,26.65
2022-08-24T13:19:10.033Z,24.62
2022-08-24T13:21:43.106Z,25.85
2022-08-24T13:24:53.743Z,25.65
2022-08-24T13:28:07.043Z,24.73
2022-08-24T13:31:12.897Z,23.95
2022-08-24T13:33:45.750Z,26.26
2022-08-24T13:36:42.046Z,25.25
2022-08-24T13:39:24.901Z,25.14
2022-08-24T13:42:11.014Z,23.94
2022-08-24T13:44:59.671Z,24.09
2022-08-24T13:47:35.405Z,23.62
2022-08-24T13:50:11.617Z,24.87
2022-08-24T13:52:57.595Z,23.66
2022-08-24T13:55:37.189Z,23.72
2022-08-24T13:58:14.388Z,24.17
2022-08-24T14:00:50.504Z,25.25
2022-08-24T14:03:38.961Z,23.33
2022-08-24T14:06:23.302Z,25.12
2022-08-24T14:09:01.745Z,23.11
2022-08-24T14:11:46.694Z,22.99
2022-08-24T14:14:23.274Z,23.55
2022-08-24T14:17:25.548Z,23.19
2022-08-24T14:20:12.349Z,22.37
2022-08-24T14:22:55.785Z,24.50
2022-08-24T14:25:27.213Z,25.00
2022-08-24T14:28:28.385Z,27.28
2022-08-24T14:31:19.999Z,23.29
2022-08-24T14:34:08.568Z,24.05
2022-08-24T14:36:50.286Z,23.60
2022-08-24T14:39:37.441Z,22.92
2022-08-24T14:42:17.785Z,23.41
2022-08-24T14:45:07.214Z,25.33
2022-08-24T14:47:47.523Z,22.81
2022-08-24T14:50:20.572Z,23.95
2022-08-24T14:53:08.534Z,22.89
2022-08-24T14:55:46.724Z,25.88
2022-08-24T14:58:36.002Z,24.12
2022-08-24T15:01:39.719Z,23.44
2022-08-24T15:04:44.071Z,22.78
2022-08-24T15:07:25.481Z,23.23
2022-08-24T15:09:56.983Z,22.38
2022-08-24T15:12:34.848Z,22.43
2022-08-24T15:15:11.072Z,24.56
2022-08-24T15:17:53.237Z,24.47
2022-08-24T15:20:30.026Z,23.07
2022-08-24T15:23:05.390Z,23.60
2022-08-24T15:25:42.149Z,23.54
2022-08-24T15:28:14.271Z,22.38
2022-08-24T15:30:54.168Z,21.67
2022-08-24T15:33:22.569Z,22.77
2022-08-24T15:36:04.363Z,23.87
2022-08-24T15:38:35.795Z,25.94
2022-08-24T15:41:09.288Z,23.48
2022-08-24T15:43:43.848Z,22.06
2022-08-24T15:46:12.841Z,23.38
2022-08-24T15:48:43.720Z,21.77
2022-08-24T15:51:32.098Z,23.21
2022-08-24T15:54:14.775Z,21.49
2022-08-24T15:56:47.461Z,21.96
2022-08-24T15:59:28.065Z,23.50
2022-08-24T16:02:31.601Z,20.38
2022-08-24T16:05:19.553Z,20.55
2022-08-24T16:08:09.501Z,21.79
2022-08-24T16:10:42.288Z,22.05
2022-08-24T16:13:23.598Z,22.35
2022-08-24T16:15:59.257Z,22.32
2022-08-24T16:18:43.875Z,23.49
2022-08-24T16:22:37.680Z,22.12
2022-08-24T16:24:14.409Z,23.07
2022-08-24T16:26:57.000Z,24.07
2022-08-24T16:29:52.730Z,23.04
2022-08-24T16:32:30.402Z,22.54
2022-08-24T16:35:21.038Z,22.82
2022-08-24T16:37:49.637Z,23.22
2022-08-24T16:40:18.631Z,23.96
2022-08-24T16:42:47.640Z,24.88
2022-08-24T16:45:20.172Z,24.91
2022-08-24T16:47:49.283Z,25.95
2022-08-24T16:50:20.275Z,23.63
2022-08-24T16:52:48.807Z,23.62
2022-08-24T16:55:17.577Z,23.95
2022-08-24T16:57:47.794Z,25.44
2022-08-24T17:00:22.317Z,24.37
2022-08-24T17:02:51.451Z,24.20
2022-08-24T17:05:20.738Z,25.42
2022-08-24T17:07:50.529Z,24.24
2022-08-24T17:10:21.862Z,26.24
2022-08-24T17:12:50.420Z,24.80
2022-08-24T17:15:20.697Z,25.57
2022-08-24T17:17:56.303Z,25.52
2022-08-24T17:20:24.488Z,26.40
2022-08-24T17:22:52.639Z,25.61
2022-08-24T17:25:20.836Z,26.35
2022-08-24T17:27:49.226Z,26.68
2022-08-24T17:30:18.658Z,26.79
2022-08-24T17:32:48.837Z,27.24
2022-08-24T17:35:17.656Z,28.34
2022-08-24T17:37:46.001Z,27.28
2022-08-24T17:40:16.834Z,28.78
2022-08-24T17:42:51.266Z,28.58
2022-08-24T17:45:20.560Z,27.58
2022-08-24T17:47:51.966Z,28.09
2022-08-24T17:50:22.050Z,28.74
2022-08-24T17:52:59.193Z,29.28
2022-08-24T17:55:29.398Z,30.00
2022-08-24T17:57:58.186Z,31.62
2022-08-24T18:00:27.078Z,31.00
2022-08-24T18:02:57.063Z,31.56
2022-08-24T18:05:25.562Z,32.66
2022-08-24T18:07:56.926Z,32.90
2022-08-24T18:10:28.249Z,34.06
2022-08-24T18:13:00.056Z,35.15
2022-08-24T18:15:35.529Z,36.42
2022-08-24T18:18:09.554Z,37.11
2022-08-24T18:30:24.422Z,38.59
2022-08-24T18:40:09.362Z,40.45
2022-08-24T18:56:51.790Z,46.65
2022-08-24T19:10:15.845Z,46.50
2022-08-24T19:12:47.110Z,47.32
2022-08-24T19:15:35.649Z,48.41
2022-08-24T19:22:28.556Z,49.99
2022-08-24T19:25:19.195Z,51.20
2022-08-24T19:28:11.419Z,52.00
2022-08-24T19:30:47.889Z,51.37
2022-08-24T19:33:33.360Z,51.57
2022-08-24T19:36:08.444Z,51.39
2022-08-24T19:39:02.589Z,51.56
2022-08-24T19:41:54.539Z,50.57
2022-08-24T19:44:49.443Z,51.50
2022-08-24T19:47:30.887Z,51.58
2022-08-24T19:50:04.589Z,50.00
2022-08-24T19:52:36.905Z,49.55
2022-08-24T19:55:15.165Z,50.47
2022-08-24T19:57:58.229Z,48.96
2022-08-24T20:00:36.891Z,49.87
2022-08-24T20:03:08.702Z,49.79
2022-08-24T20:05:38.974Z,49.40
2022-08-24T20:08:10.773Z,49.66
2022-08-24T20:10:39.441Z,48.21
2022-08-24T20:13:10.600Z,49.44
2022-08-24T20:15:43.305Z,48.58
2022-08-24T20:18:19.722Z,49.58
2022-08-24T20:20:49.347Z,50.76
2022-08-24T20:23:19.531Z,50.48
2022-08-24T20:25:47.874Z,51.08
2022-08-24T20:28:29.313Z,49.14
2022-08-24T20:31:00.810Z,50.69
2022-08-24T20:33:28.973Z,50.42
2022-08-24T20:35:58.264Z,51.90
2022-08-24T20:38:31.963Z,51.70
2022-08-24T20:41:01.573Z,52.29
2022-08-24T20:43:31.333Z,52.32
2022-08-24T20:45:59.595Z,51.33
2022-08-24T20:48:30.721Z,50.94
2022-08-24T20:51:00.218Z,49.50
2022-08-24T20:53:28.491Z,50.76
2022-08-24T20:55:58.281Z,50.68
2022-08-24T20:58:27.294Z,50.77
2022-08-24T21:00:57.409Z,51.08
2022-08-24T21:03:25.758Z,51.35
2022-08-24T21:05:54.149Z,51.49
2022-08-24T21:08:22.935Z,52.53
2022-08-24T21:10:51.152Z,51.98
2022-08-24T21:13:19.736Z,52.59
2022-08-24T21:15:49.071Z,52.65
2022-08-24T21:18:19.114Z,53.22
2022-08-24T21:21:03.905Z,53.37
2022-08-24T21:23:33.548Z,54.81
2022-08-24T21:26:03.258Z,54.16
2022-08-24T21:28:34.207Z,55.92
2022-08-24T21:31:05.900Z,55.91
2022-08-24T21:33:53.645Z,55.94
2022-08-24T21:36:23.872Z,55.68
2022-08-24T21:38:54.447Z,55.82
2022-08-24T21:41:23.043Z,54.34
2022-08-24T21:43:52.502Z,53.95
2022-08-24T21:46:20.756Z,54.61
2022-08-24T21:48:50.306Z,54.94
2022-08-24T21:51:18.372Z,54.92
2022-08-24T21:53:46.607Z,56.55
2022-08-24T21:56:16.794Z,57.04
2022-08-24T21:58:47.374Z,56.25
2022-08-24T22:01:16.221Z,55.90
2022-08-24T22:03:44.429Z,58.59
2022-08-24T22:06:14.446Z,60.29
2022-08-24T22:08:44.143Z,60.80
2022-08-24T22:11:13.913Z,60.91
2022-08-24T22:13:42.415Z,60.81
2022-08-24T22:16:11.609Z,62.37
2022-08-24T22:18:40.789Z,63.24
2022-08-24T22:21:10.344Z,62.81
2022-08-24T22:23:40.014Z,64.72
2022-08-24T22:26:08.933Z,66.03
2022-08-24T22:28:38.365Z,66.67
2022-08-24T22:31:17.179Z,65.52
2022-08-24T22:33:46.066Z,65.36
2022-08-24T22:36:15.435Z,66.30
2022-08-24T22:38:45.083Z,66.63
2022-08-24T22:41:13.313Z,63.15
2022-08-24T22:43:58.956Z,63.79
2022-08-24T22:46:27.345Z,63.07
2022-08-24T22:48:55.818Z,63.25
2022-08-24T22:51:24.192Z,63.71
2022-08-24T22:53:53.913Z,63.83
2022-08-24T22:56:24.013Z,64.63
2022-08-24T22:58:52.973Z,65.10
2022-08-24T23:01:22.884Z,65.86
2022-08-24T23:03:52.427Z,65.74
2022-08-24T23:06:21.479Z,64.97
2022-08-24T23:08:50.031Z,64.75
2022-08-24T23:11:23.272Z,65.31
2022-08-24T23:13:51.597Z,67.57
2022-08-24T23:16:19.677Z,66.52
2022-08-24T23:19:04.917Z,69.72
2022-08-24T23:21:33.084Z,69.12
2022-08-24T23:24:01.207Z,68.16
2022-08-24T23:26:32.609Z,67.07
2022-08-24T23:29:01.601Z,68.71
2022-08-24T23:31:30.387Z,67.53
2022-08-24T23:33:59.148Z,67.37
2022-08-24T23:36:28.965Z,66.64
2022-08-24T23:38:59.231Z,68.40
2022-08-24T23:41:29.625Z,69.71
2022-08-24T23:44:01.488Z,71.26
2022-08-24T23:46:29.650Z,70.80
2022-08-24T23:49:02.827Z,68.81
2022-08-24T23:51:32.315Z,69.31
2022-08-24T23:54:00.720Z,73.14
2022-08-24T23:56:32.091Z,72.94
2022-08-24T23:59:04.771Z,73.80
